Time;durP1;ratioP1;P1;durP2;ratioP2;P2;SDS_P1;SDS_P2;PMS_P1;PMS_P2;Temp;Humidity;BMP_temperature;BMP_pressure;BME280_temperature;BME280_humidity;BME280_pressure;Samples;Min_cycle;Max_cycle;Signal;HPM_P1;HPM_P2
2023/06/25 00:09:52;;;;;;;20.00;13.60;;;;;;;14.54;78.20;99015.70;436523;1251;111871;-41
2023/06/25 00:20:01;;;;;;;14.70;10.70;;;;;;;14.57;78.40;99012.38;436234;1248;109303;-43
2023/06/25 00:30:08;;;;;;;;;;;;;;;14.50;78.62;99007.66;436310;1253;98837;-41
2023/06/25 00:40:16;;;;;;;19.50;13.30;;;;;;;14.31;78.79;99005.18;436042;1251;107948;-43
2023/06/25 00:50:22;;;;;;;16.70;12.00;;;;;;;14.17;79.10;99002.88;436160;1252;99144;-41
2023/06/25 01:00:33;;;;;;;18.00;11.80;;;;;;;14.10;79.26;98993.80;436297;1253;111432;-42
2023/06/25 01:10:41;;;;;;;14.20;11.90;;;;;;;14.11;79.59;98991.52;436256;1248;108773;-42
2023/06/25 01:20:51;;;;;;;17.70;12.00;;;;;;;14.18;79.66;98982.64;437102;1247;99213;-41
2023/06/25 01:30:59;;;;;;;14.20;11.50;;;;;;;14.20;79.82;98978.36;436257;1254;107528;-42
2023/06/25 01:41:06;;;;;;;16.40;11.50;;;;;;;14.25;79.96;98976.48;436213;1254;98898;-42
2023/06/25 01:51:13;;;;;;;19.80;13.00;;;;;;;14.20;80.09;98970.61;436212;1253;111075;-43
2023/06/25 02:01:18;;;;;;;22.60;12.40;;;;;;;14.17;80.24;98963.85;436174;1254;107661;-42
2023/06/25 02:11:25;;;;;;;14.90;11.70;;;;;;;14.09;80.04;98962.25;436359;1251;99236;-43
2023/06/25 02:21:32;;;;;;;17.60;12.20;;;;;;;14.06;80.19;98958.42;436186;1248;109725;-42
2023/06/25 02:31:39;;;;;;;16.10;11.00;;;;;;;13.98;80.45;98953.76;436256;1254;99314;-42
2023/06/25 02:41:46;;;;;;;16.90;13.90;;;;;;;14.02;80.62;98955.04;436474;1248;112125;-43
2023/06/25 02:51:53;;;;;;;15.50;12.10;;;;;;;14.01;80.60;98954.48;436214;1254;107325;-41
2023/06/25 03:02:01;;;;;;;18.40;12.20;;;;;;;14.03;80.51;98952.27;436184;1261;99301;-41
2023/06/25 03:12:08;;;;;;;18.80;12.60;;;;;;;14.10;80.58;98957.00;436280;1253;107313;-42
2023/06/25 03:22:15;;;;;;;17.80;12.00;;;;;;;15.15;80.31;98948.21;436331;1251;99045;-43
2023/06/25 03:32:20;;;;;;;16.70;12.30;;;;;;;16.85;79.45;98945.27;436078;1254;385747;-42
2023/06/25 03:42:27;;;;;;;18.30;11.80;;;;;;;17.89;77.81;98948.22;436321;1254;106900;-43
2023/06/25 03:52:34;;;;;;;17.40;12.20;;;;;;;19.25;76.34;98949.80;436188;1254;99314;-43
2023/06/25 04:02:41;;;;;;;13.60;11.70;;;;;;;20.85;74.81;98947.27;436103;1254;108628;-42
2023/06/25 04:12:49;;;;;;;17.50;12.50;;;;;;;21.96;73.10;98947.02;436262;1248;99231;-43
2023/06/25 04:22:56;;;;;;;17.50;11.10;;;;;;;22.99;71.23;98950.67;436372;1253;111856;-41
2023/06/25 04:33:04;;;;;;;12.50;10.50;;;;;;;24.06;69.68;98940.71;436272;1248;108418;-40
2023/06/25 04:43:12;;;;;;;12.30;9.80;;;;;;;24.98;68.47;98943.62;436406;1251;99240;-41
2023/06/25 04:53:20;;;;;;;11.50;10.10;;;;;;;25.36;66.57;98946.66;436273;1248;107762;-42
2023/06/25 05:03:26;;;;;;;13.00;10.10;;;;;;;25.13;64.64;98946.46;436199;1247;99226;-44
2023/06/25 05:33:50;;;;;;;14.50;9.10;;;;;;;24.27;62.83;98945.02;436369;1251;99246;-41
2023/06/25 05:43:58;;;;;;;11.10;9.30;;;;;;;24.34;61.93;98942.93;436406;1248;108223;-42
2023/06/25 05:54:06;;;;;;;10.50;9.40;;;;;;;24.42;61.30;98952.83;436324;1254;99269;-41
2023/06/25 06:04:13;;;;;;;11.30;9.40;;;;;;;24.56;60.50;98955.92;436364;1253;110946;-42
2023/06/25 06:14:20;;;;;;;11.60;9.10;;;;;;;24.93;60.07;98955.54;436335;1247;109502;-41
2023/06/25 06:34:34;;;;;;;12.10;9.90;;;;;;;25.37;58.50;98949.66;436341;1252;108748;-43
2023/06/25 06:44:40;;;;;;;12.00;9.20;;;;;;;25.79;58.56;98945.38;436393;1261;99216;-42
2023/06/25 06:54:47;;;;;;;12.90;8.60;;;;;;;26.19;57.54;98943.73;436222;1253;112948;-41
2023/06/25 07:04:55;;;;;;;9.50;8.30;;;;;;;25.99;56.90;98937.65;436290;1248;109293;-41
2023/06/25 07:15:02;;;;;;;10.50;8.40;;;;;;;26.10;56.67;98936.80;436435;1253;97978;-43
2023/06/25 07:35:17;;;;;;;11.50;7.90;;;;;;;26.30;56.13;98925.45;436242;1254;99231;-42
2023/06/25 07:45:25;;;;;;;11.40;8.70;;;;;;;26.31;55.05;98920.56;436235;1252;111483;-42
2023/06/25 08:05:39;;;;;;;7.30;6.60;;;;;;;26.28;54.37;98919.74;436404;1248;99304;-42
2023/06/25 08:15:50;;;;;;;10.60;6.30;;;;;;;26.34;52.81;98920.36;436297;1254;107842;-42
2023/06/25 08:25:57;;;;;;;7.80;5.70;;;;;;;26.09;52.43;98915.39;436382;1253;99317;-41
2023/06/25 08:36:05;;;;;;;7.50;5.00;;;;;;;26.04;50.54;98914.26;436297;1253;113007;-42
2023/06/25 08:46:13;;;;;;;6.50;5.60;;;;;;;25.99;49.92;98912.94;436360;1247;107826;-42
2023/06/25 08:56:21;;;;;;;6.20;5.60;;;;;;;26.30;49.58;98912.00;436371;1253;99276;-42
2023/06/25 09:06:28;;;;;;;5.90;5.40;;;;;;;26.29;48.62;98911.64;436594;1247;107731;-42
2023/06/25 09:16:45;;;;;;;7.50;4.80;;;;;;;26.70;48.17;98914.05;436313;1253;99223;-43
2023/06/25 09:26:54;;;;;;;7.00;4.80;;;;;;;26.59;46.70;98911.67;436357;1248;112099;-42
2023/06/25 09:37:04;;;;;;;5.20;4.00;;;;;;;26.46;45.82;98904.71;436327;1253;107881;-42
2023/06/25 09:47:16;;;;;;;8.30;4.80;;;;;;;26.30;44.10;98905.43;436460;1254;97992;-44
2023/06/25 10:07:33;;;;;;;7.90;4.30;;;;;;;26.30;42.03;98892.47;436516;1253;99282;-42
2023/06/25 10:17:46;;;;;;;5.10;4.00;;;;;;;26.36;42.49;98885.42;436540;1252;112392;-42
2023/06/25 10:28:02;;;;;;;3.60;3.30;;;;;;;26.60;42.24;98877.39;436376;1248;107658;-41
2023/06/25 10:38:10;;;;;;;4.70;3.70;;;;;;;26.68;41.71;98875.42;436547;1250;99221;-42
2023/06/25 10:48:17;;;;;;;4.50;4.10;;;;;;;26.63;41.38;98867.73;436334;1253;107271;-42
2023/06/25 10:58:26;;;;;;;4.80;4.40;;;;;;;26.42;41.16;98867.16;436379;1252;99236;-42
2023/06/25 11:08:34;;;;;;;4.80;4.30;;;;;;;26.67;41.58;98860.05;436422;1253;111062;-41
2023/06/25 11:18:41;;;;;;;6.30;4.70;;;;;;;26.35;40.76;98851.48;436329;1252;109336;-41
2023/06/25 11:28:49;;;;;;;4.00;3.60;;;;;;;26.60;40.84;98845.39;436400;1252;99240;-43
2023/06/25 11:38:58;;;;;;;3.90;3.60;;;;;;;26.53;40.72;98837.52;436322;1248;107251;-41
2023/06/25 11:49:05;;;;;;;3.60;3.30;;;;;;;26.71;40.41;98833.70;436414;1248;99842;-42
2023/06/25 11:59:13;;;;;;;4.10;3.20;;;;;;;26.81;40.19;98821.61;436440;1252;110962;-43
2023/06/25 12:19:26;;;;;;;6.20;3.80;;;;;;;26.94;38.99;98806.03;436286;1252;99719;-41
2023/06/25 12:29:34;;;;;;;3.80;3.50;;;;;;;27.06;38.42;98793.05;436329;1252;108652;-41
2023/06/25 12:39:41;;;;;;;5.40;3.30;;;;;;;27.16;38.54;98784.34;436420;1261;98567;-41
2023/06/25 12:49:49;;;;;;;5.10;3.90;;;;;;;27.38;38.83;98781.61;436537;1253;110636;-42
2023/06/25 12:59:56;;;;;;;4.10;3.40;;;;;;;27.31;38.41;98775.39;436379;1248;107834;-41
2023/06/25 13:10:03;;;;;;;4.20;3.80;;;;;;;27.10;38.35;98780.78;436417;1251;99214;-41
2023/06/25 13:20:11;;;;;;;4.80;4.30;;;;;;;26.20;39.44;98783.42;436362;1253;109523;-42
2023/06/25 13:30:19;;;;;;;4.60;4.10;;;;;;;26.30;40.04;98776.96;436408;1252;99116;-41
2023/06/25 13:40:26;;;;;;;4.50;4.10;;;;;;;26.43;39.92;98775.02;436432;1253;111754;-42
2023/06/25 13:50:32;;;;;;;5.60;5.10;;;;;;;25.68;40.08;98772.38;436344;1253;108787;-40
2023/06/25 14:00:40;;;;;;;6.30;5.10;;;;;;;25.18;41.19;98768.34;436440;1248;98005;-41
2023/06/25 14:10:47;;;;;;;7.70;5.00;;;;;;;25.73;41.82;98762.04;436541;1252;108585;-41
2023/06/25 14:20:55;;;;;;;4.60;4.00;;;;;;;25.73;41.41;98752.67;436439;1253;99230;-41
2023/06/25 14:31:03;;;;;;;9.20;4.40;;;;;;;25.61;40.80;98750.88;436314;1248;112003;-42
2023/06/25 14:41:11;;;;;;;5.30;4.90;;;;;;;25.48;40.55;98747.17;436390;1251;108743;-41
2023/06/25 14:51:20;;;;;;;6.40;4.30;;;;;;;25.14;40.96;98745.29;436445;1252;99228;-41
2023/06/25 15:01:28;;;;;;;8.20;4.70;;;;;;;25.37;40.61;98734.58;436436;1252;108621;-41
2023/06/25 15:11:36;;;;;;;5.50;4.70;;;;;;;24.81;40.61;98735.98;436374;1253;99209;-41
2023/06/25 15:21:43;;;;;;;5.60;5.10;;;;;;;24.67;41.68;98728.00;436484;1253;112824;-41
2023/06/25 15:31:51;;;;;;;7.10;4.70;;;;;;;25.19;41.77;98725.19;436170;1247;353160;-41
2023/06/25 15:41:58;;;;;;;7.70;6.00;;;;;;;25.36;41.22;98722.78;436451;1253;99305;-40
2023/06/25 15:52:05;;;;;;;9.10;5.10;;;;;;;25.33;41.45;98711.02;435977;1252;107631;-42
2023/06/25 16:12:17;;;;;;;5.40;4.70;;;;;;;24.45;41.23;98701.42;435673;1251;111108;-41
2023/06/25 16:22:22;;;;;;;;;;;;;;;24.16;42.07;98700.48;436622;1253;108505;-40
2023/06/25 16:32:29;;;;;;;6.00;5.30;;;;;;;24.12;42.41;98692.87;435600;1251;99035;-41
2023/06/25 16:42:37;;;;;;;5.30;4.80;;;;;;;24.18;42.24;98689.39;435521;1253;108531;-40
2023/06/25 16:52:44;;;;;;;4.10;3.70;;;;;;;24.18;42.01;98686.85;435696;1253;99243;-41
2023/06/25 17:02:51;;;;;;;7.10;4.40;;;;;;;24.13;42.14;98688.90;435701;1253;111052;-40
2023/06/25 17:12:59;;;;;;;4.30;3.80;;;;;;;24.08;42.21;98693.38;435830;1251;107896;-41
2023/06/25 17:23:06;;;;;;;5.00;4.10;;;;;;;23.72;42.22;98693.45;435630;1251;99303;-42
2023/06/25 17:33:13;;;;;;;5.40;4.10;;;;;;;23.42;42.65;98695.20;435863;1253;108855;-43
2023/06/25 17:43:22;;;;;;;8.10;3.80;;;;;;;23.25;43.07;98695.08;435572;1253;97971;-42
2023/06/25 18:13:44;;;;;;;5.70;4.40;;;;;;;22.69;44.30;98695.88;435534;1254;99237;-41
2023/06/25 18:23:51;;;;;;;5.60;4.80;;;;;;;22.47;45.14;98697.13;435641;1251;109377;-42
2023/06/25 18:34:00;;;;;;;9.60;5.70;;;;;;;22.14;45.84;98692.61;435632;1250;99883;-42
2023/06/25 18:44:08;;;;;;;7.00;5.30;;;;;;;21.86;46.61;98699.46;435689;1254;111080;-44
2023/06/25 18:54:14;;;;;;;;;;;;;;;21.56;47.40;98703.17;435514;1253;107286;-42
2023/06/25 19:04:21;;;;;;;9.40;6.20;;;;;;;21.18;48.65;98709.24;435785;1251;99212;-42
2023/06/25 19:14:29;;;;;;;15.60;7.40;;;;;;;20.63;49.50;98702.44;436016;1251;109445;-43
2023/06/25 19:24:36;;;;;;;11.60;6.80;;;;;;;20.11;50.67;98708.34;435971;1261;98807;-41
2023/06/25 19:34:44;;;;;;;14.10;6.90;;;;;;;19.55;51.74;98714.67;435822;1253;111178;-42
2023/06/25 19:44:52;;;;;;;9.60;6.30;;;;;;;19.10;52.71;98718.90;435662;1253;107308;-41
2023/06/25 19:54:59;;;;;;;10.70;6.70;;;;;;;18.83;53.54;98719.73;435566;1251;99874;-41
2023/06/25 20:15:14;;;;;;;12.10;7.70;;;;;;;18.30;55.19;98718.86;435753;1252;98034;-41
2023/06/25 20:25:21;;;;;;;13.30;8.70;;;;;;;18.00;55.87;98711.17;435818;1254;110920;-42
2023/06/25 20:35:28;;;;;;;12.00;8.50;;;;;;;17.76;56.64;98709.62;435792;1263;107766;-42
2023/06/25 20:45:35;;;;;;;11.10;7.20;;;;;;;17.66;57.30;98716.33;435702;1253;98840;-42
2023/06/25 20:55:42;;;;;;;17.20;8.80;;;;;;;17.52;57.90;98717.16;435950;1253;107888;-41
2023/06/25 21:05:50;;;;;;;13.00;8.10;;;;;;;17.33;58.42;98716.31;435825;1254;99218;-41
2023/06/25 21:15:57;;;;;;;13.90;7.80;;;;;;;17.13;59.04;98719.40;436153;1253;112105;-41
2023/06/25 21:26:04;;;;;;;10.50;7.90;;;;;;;17.00;59.53;98720.05;435696;1253;108488;-40
2023/06/25 21:36:11;;;;;;;14.60;8.60;;;;;;;16.91;60.23;98721.61;435964;1251;99250;-41
2023/06/25 21:46:18;;;;;;;12.60;8.40;;;;;;;16.73;60.67;98722.80;435829;1255;109456;-41
2023/06/25 21:56:26;;;;;;;12.60;7.40;;;;;;;16.56;61.07;98721.96;435710;1253;98816;-41
2023/06/25 22:06:33;;;;;;;9.90;7.10;;;;;;;16.50;61.62;98726.05;435925;1254;112026;-41
2023/06/25 22:16:59;;;;;;;12.20;7.70;;;;;;;16.46;61.91;98724.77;435607;1253;109457;-41
2023/06/25 22:27:07;;;;;;;15.00;8.80;;;;;;;16.30;62.34;98716.00;435459;1254;97996;-40
2023/06/25 22:37:14;;;;;;;10.40;8.30;;;;;;;16.08;62.60;98714.25;435228;1249;108455;-42
2023/06/25 22:47:22;;;;;;;8.50;6.90;;;;;;;16.01;63.22;98707.83;435317;1256;99370;-42
2023/06/25 22:57:29;;;;;;;15.20;7.30;;;;;;;16.06;63.68;98701.06;435314;1253;112012;-43
2023/06/25 23:07:36;;;;;;;13.10;7.80;;;;;;;16.01;64.00;98701.85;435131;1254;108706;-40
2023/06/25 23:17:42;;;;;;;8.40;6.60;;;;;;;15.94;64.29;98699.23;435645;1251;98923;-42
2023/06/25 23:27:50;;;;;;;13.40;7.00;;;;;;;15.86;64.59;98689.65;436036;1254;108470;-42
2023/06/25 23:37:57;;;;;;;12.40;7.30;;;;;;;15.75;65.11;98682.36;436176;1251;98021;-42
2023/06/25 23:48:03;;;;;;;10.00;6.80;;;;;;;15.55;65.26;98673.48;436184;1249;112193;-41
2023/06/25 23:58:10;;;;;;;10.00;6.20;;;;;;;15.39;65.66;98664.51;435814;1254;107575;-42
